sensor_id;sensor_type;location;lat;lon;timestamp;P1;durP1;ratioP1;P2;durP2;ratioP2
14903;SDS011;7543;53.148;8.234;2022-08-19T00:00:41;7.07;;;3.10;;
14903;SDS011;7543;53.148;8.234;2022-08-19T00:03:10;5.77;;;3.60;;
14903;SDS011;7543;53.148;8.234;2022-08-19T00:05:38;6.63;;;4.10;;
14903;SDS011;7543;53.148;8.234;2022-08-19T00:08:08;6.17;;;3.60;;
14903;SDS011;7543;53.148;8.234;2022-08-19T00:10:36;8.60;;;4.37;;
14903;SDS011;7543;53.148;8.234;2022-08-19T00:13:04;9.23;;;4.70;;
14903;SDS011;7543;53.148;8.234;2022-08-19T00:15:33;8.67;;;4.27;;
14903;SDS011;7543;53.148;8.234;2022-08-19T00:18:01;9.57;;;4.03;;
14903;SDS011;7543;53.148;8.234;2022-08-19T00:20:29;10.10;;;4.90;;
14903;SDS011;7543;53.148;8.234;2022-08-19T00:22:57;10.00;;;4.77;;
14903;SDS011;7543;53.148;8.234;2022-08-19T00:25:26;11.87;;;4.80;;
14903;SDS011;7543;53.148;8.234;2022-08-19T00:27:55;10.80;;;4.60;;
14903;SDS011;7543;53.148;8.234;2022-08-19T00:30:23;10.20;;;4.37;;
14903;SDS011;7543;53.148;8.234;2022-08-19T00:32:51;9.17;;;4.20;;
14903;SDS011;7543;53.148;8.234;2022-08-19T00:35:22;7.17;;;3.53;;
14903;SDS011;7543;53.148;8.234;2022-08-19T00:37:50;4.90;;;3.10;;
14903;SDS011;7543;53.148;8.234;2022-08-19T00:40:19;6.27;;;2.93;;
14903;SDS011;7543;53.148;8.234;2022-08-19T00:42:48;5.33;;;3.23;;
14903;SDS011;7543;53.148;8.234;2022-08-19T00:45:21;5.07;;;3.37;;
14903;SDS011;7543;53.148;8.234;2022-08-19T00:47:50;7.10;;;3.80;;
14903;SDS011;7543;53.148;8.234;2022-08-19T00:50:19;7.03;;;3.17;;
14903;SDS011;7543;53.148;8.234;2022-08-19T00:52:49;7.80;;;3.53;;
14903;SDS011;7543;53.148;8.234;2022-08-19T00:55:19;5.80;;;3.20;;
14903;SDS011;7543;53.148;8.234;2022-08-19T00:57:52;8.40;;;4.23;;
14903;SDS011;7543;53.148;8.234;2022-08-19T01:00:23;6.27;;;3.60;;
14903;SDS011;7543;53.148;8.234;2022-08-19T01:02:52;10.53;;;4.37;;
14903;SDS011;7543;53.148;8.234;2022-08-19T01:05:21;13.87;;;5.40;;
14903;SDS011;7543;53.148;8.234;2022-08-19T01:07:54;16.30;;;6.00;;
14903;SDS011;7543;53.148;8.234;2022-08-19T01:10:23;20.80;;;9.53;;
14903;SDS011;7543;53.148;8.234;2022-08-19T01:12:55;30.67;;;10.83;;
14903;SDS011;7543;53.148;8.234;2022-08-19T01:15:24;29.07;;;11.17;;
14903;SDS011;7543;53.148;8.234;2022-08-19T01:17:55;39.23;;;13.83;;
14903;SDS011;7543;53.148;8.234;2022-08-19T01:20:25;61.10;;;19.47;;
14903;SDS011;7543;53.148;8.234;2022-08-19T01:22:55;74.77;;;23.47;;
14903;SDS011;7543;53.148;8.234;2022-08-19T01:25:26;120.00;;;33.10;;
14903;SDS011;7543;53.148;8.234;2022-08-19T01:27:56;132.33;;;35.97;;
14903;SDS011;7543;53.148;8.234;2022-08-19T01:30:26;147.60;;;39.20;;
14903;SDS011;7543;53.148;8.234;2022-08-19T01:32:57;117.20;;;31.40;;
14903;SDS011;7543;53.148;8.234;2022-08-19T01:35:29;86.73;;;26.47;;
14903;SDS011;7543;53.148;8.234;2022-08-19T01:38:02;87.10;;;26.30;;
14903;SDS011;7543;53.148;8.234;2022-08-19T01:40:35;41.13;;;13.77;;
14903;SDS011;7543;53.148;8.234;2022-08-19T01:43:04;34.67;;;10.27;;
14903;SDS011;7543;53.148;8.234;2022-08-19T01:45:33;29.67;;;9.67;;
14903;SDS011;7543;53.148;8.234;2022-08-19T01:48:02;16.67;;;7.40;;
14903;SDS011;7543;53.148;8.234;2022-08-19T01:50:32;13.87;;;6.20;;
14903;SDS011;7543;53.148;8.234;2022-08-19T01:53:03;12.40;;;5.03;;
14903;SDS011;7543;53.148;8.234;2022-08-19T01:55:32;8.27;;;4.57;;
14903;SDS011;7543;53.148;8.234;2022-08-19T02:01:49;9.73;;;5.17;;
14903;SDS011;7543;53.148;8.234;2022-08-19T02:04:18;6.53;;;3.83;;
14903;SDS011;7543;53.148;8.234;2022-08-19T02:06:47;7.07;;;4.43;;
14903;SDS011;7543;53.148;8.234;2022-08-19T02:09:17;5.93;;;3.80;;
14903;SDS011;7543;53.148;8.234;2022-08-19T02:11:45;8.00;;;4.20;;
14903;SDS011;7543;53.148;8.234;2022-08-19T02:14:13;7.77;;;4.13;;
14903;SDS011;7543;53.148;8.234;2022-08-19T02:16:41;10.60;;;5.33;;
14903;SDS011;7543;53.148;8.234;2022-08-19T02:19:09;9.87;;;5.07;;
14903;SDS011;7543;53.148;8.234;2022-08-19T02:21:37;16.83;;;5.10;;
14903;SDS011;7543;53.148;8.234;2022-08-19T02:24:06;11.57;;;4.70;;
14903;SDS011;7543;53.148;8.234;2022-08-19T02:26:35;12.73;;;5.80;;
14903;SDS011;7543;53.148;8.234;2022-08-19T02:29:03;16.97;;;6.30;;
14903;SDS011;7543;53.148;8.234;2022-08-19T02:31:32;10.47;;;4.37;;
14903;SDS011;7543;53.148;8.234;2022-08-19T02:34:00;8.53;;;4.23;;
14903;SDS011;7543;53.148;8.234;2022-08-19T02:36:28;13.93;;;5.43;;
14903;SDS011;7543;53.148;8.234;2022-08-19T02:38:56;11.77;;;4.57;;
14903;SDS011;7543;53.148;8.234;2022-08-19T02:41:24;12.93;;;4.93;;
14903;SDS011;7543;53.148;8.234;2022-08-19T02:43:55;8.80;;;3.97;;
14903;SDS011;7543;53.148;8.234;2022-08-19T02:46:25;11.30;;;4.07;;
14903;SDS011;7543;53.148;8.234;2022-08-19T02:48:54;7.70;;;3.67;;
14903;SDS011;7543;53.148;8.234;2022-08-19T02:51:25;5.27;;;3.17;;
14903;SDS011;7543;53.148;8.234;2022-08-19T02:53:54;4.13;;;2.70;;
14903;SDS011;7543;53.148;8.234;2022-08-19T02:56:23;6.93;;;3.17;;
14903;SDS011;7543;53.148;8.234;2022-08-19T02:58:55;3.87;;;2.60;;
14903;SDS011;7543;53.148;8.234;2022-08-19T03:01:24;3.13;;;2.47;;
14903;SDS011;7543;53.148;8.234;2022-08-19T03:03:54;3.83;;;2.07;;
14903;SDS011;7543;53.148;8.234;2022-08-19T03:06:23;3.73;;;2.50;;
14903;SDS011;7543;53.148;8.234;2022-08-19T03:08:51;4.50;;;2.47;;
14903;SDS011;7543;53.148;8.234;2022-08-19T03:11:21;4.73;;;3.00;;
14903;SDS011;7543;53.148;8.234;2022-08-19T03:13:50;3.60;;;2.40;;
14903;SDS011;7543;53.148;8.234;2022-08-19T03:16:21;4.20;;;2.50;;
14903;SDS011;7543;53.148;8.234;2022-08-19T03:18:51;3.73;;;2.57;;
14903;SDS011;7543;53.148;8.234;2022-08-19T03:21:21;3.30;;;2.10;;
14903;SDS011;7543;53.148;8.234;2022-08-19T03:23:53;3.23;;;2.20;;
14903;SDS011;7543;53.148;8.234;2022-08-19T03:26:22;3.47;;;2.57;;
14903;SDS011;7543;53.148;8.234;2022-08-19T03:28:50;7.17;;;2.47;;
14903;SDS011;7543;53.148;8.234;2022-08-19T03:31:19;3.77;;;2.50;;
14903;SDS011;7543;53.148;8.234;2022-08-19T03:33:49;3.63;;;2.30;;
14903;SDS011;7543;53.148;8.234;2022-08-19T03:36:19;3.93;;;2.50;;
14903;SDS011;7543;53.148;8.234;2022-08-19T03:38:51;3.97;;;2.57;;
14903;SDS011;7543;53.148;8.234;2022-08-19T03:41:22;4.57;;;2.57;;
14903;SDS011;7543;53.148;8.234;2022-08-19T03:43:51;3.80;;;2.43;;
14903;SDS011;7543;53.148;8.234;2022-08-19T03:46:22;4.30;;;2.50;;
14903;SDS011;7543;53.148;8.234;2022-08-19T03:48:51;6.30;;;2.77;;
14903;SDS011;7543;53.148;8.234;2022-08-19T03:51:22;4.43;;;2.83;;
14903;SDS011;7543;53.148;8.234;2022-08-19T03:53:52;4.77;;;2.43;;
14903;SDS011;7543;53.148;8.234;2022-08-19T03:56:20;5.30;;;2.73;;
14903;SDS011;7543;53.148;8.234;2022-08-19T03:58:49;3.70;;;2.07;;
14903;SDS011;7543;53.148;8.234;2022-08-19T04:01:18;3.87;;;2.20;;
14903;SDS011;7543;53.148;8.234;2022-08-19T04:03:48;3.33;;;2.37;;
14903;SDS011;7543;53.148;8.234;2022-08-19T04:06:17;3.10;;;1.80;;
14903;SDS011;7543;53.148;8.234;2022-08-19T04:08:48;6.50;;;2.43;;
14903;SDS011;7543;53.148;8.234;2022-08-19T04:11:18;2.97;;;2.10;;
14903;SDS011;7543;53.148;8.234;2022-08-19T04:13:49;4.10;;;2.00;;
14903;SDS011;7543;53.148;8.234;2022-08-19T04:16:17;3.40;;;2.00;;
14903;SDS011;7543;53.148;8.234;2022-08-19T04:18:46;4.47;;;2.47;;
14903;SDS011;7543;53.148;8.234;2022-08-19T04:21:17;3.17;;;1.97;;
14903;SDS011;7543;53.148;8.234;2022-08-19T04:23:46;3.23;;;2.10;;
14903;SDS011;7543;53.148;8.234;2022-08-19T04:26:15;2.43;;;1.90;;
14903;SDS011;7543;53.148;8.234;2022-08-19T04:28:46;3.83;;;2.30;;
14903;SDS011;7543;53.148;8.234;2022-08-19T04:31:15;2.77;;;2.20;;
14903;SDS011;7543;53.148;8.234;2022-08-19T04:33:44;3.00;;;2.13;;
14903;SDS011;7543;53.148;8.234;2022-08-19T04:36:16;3.97;;;2.10;;
14903;SDS011;7543;53.148;8.234;2022-08-19T04:38:47;3.17;;;1.63;;
14903;SDS011;7543;53.148;8.234;2022-08-19T04:41:15;2.53;;;1.83;;
14903;SDS011;7543;53.148;8.234;2022-08-19T04:44:00;2.37;;;1.93;;
14903;SDS011;7543;53.148;8.234;2022-08-19T04:48:58;4.03;;;1.77;;
14903;SDS011;7543;53.148;8.234;2022-08-19T04:51:28;3.83;;;2.20;;
14903;SDS011;7543;53.148;8.234;2022-08-19T04:53:58;3.63;;;1.70;;
14903;SDS011;7543;53.148;8.234;2022-08-19T04:56:26;3.37;;;1.97;;
14903;SDS011;7543;53.148;8.234;2022-08-19T04:58:55;2.67;;;1.90;;
14903;SDS011;7543;53.148;8.234;2022-08-19T05:01:25;3.50;;;1.90;;
14903;SDS011;7543;53.148;8.234;2022-08-19T05:03:54;3.20;;;2.10;;
14903;SDS011;7543;53.148;8.234;2022-08-19T05:06:23;2.63;;;2.00;;
14903;SDS011;7543;53.148;8.234;2022-08-19T05:08:53;3.47;;;1.80;;
14903;SDS011;7543;53.148;8.234;2022-08-19T05:11:24;4.03;;;2.30;;
14903;SDS011;7543;53.148;8.234;2022-08-19T05:13:55;3.07;;;2.20;;
14903;SDS011;7543;53.148;8.234;2022-08-19T05:16:24;3.07;;;1.90;;
14903;SDS011;7543;53.148;8.234;2022-08-19T05:18:53;2.87;;;2.00;;
14903;SDS011;7543;53.148;8.234;2022-08-19T05:21:40;2.70;;;1.97;;
14903;SDS011;7543;53.148;8.234;2022-08-19T05:24:28;2.97;;;1.87;;
14903;SDS011;7543;53.148;8.234;2022-08-19T05:26:56;4.20;;;2.60;;
14903;SDS011;7543;53.148;8.234;2022-08-19T05:29:26;3.40;;;2.40;;
14903;SDS011;7543;53.148;8.234;2022-08-19T05:31:55;3.97;;;2.70;;
14903;SDS011;7543;53.148;8.234;2022-08-19T05:34:23;3.67;;;2.30;;
14903;SDS011;7543;53.148;8.234;2022-08-19T05:36:53;3.37;;;2.30;;
14903;SDS011;7543;53.148;8.234;2022-08-19T05:39:26;3.17;;;2.30;;
14903;SDS011;7543;53.148;8.234;2022-08-19T05:41:57;5.23;;;2.50;;
14903;SDS011;7543;53.148;8.234;2022-08-19T05:44:28;4.20;;;2.57;;
14903;SDS011;7543;53.148;8.234;2022-08-19T05:46:58;5.47;;;3.33;;
14903;SDS011;7543;53.148;8.234;2022-08-19T05:49:27;7.67;;;3.50;;
14903;SDS011;7543;53.148;8.234;2022-08-19T05:51:55;7.80;;;3.17;;
14903;SDS011;7543;53.148;8.234;2022-08-19T05:54:23;6.83;;;3.00;;
14903;SDS011;7543;53.148;8.234;2022-08-19T05:56:53;8.10;;;3.87;;
14903;SDS011;7543;53.148;8.234;2022-08-19T05:59:22;6.93;;;4.13;;
14903;SDS011;7543;53.148;8.234;2022-08-19T06:01:51;15.10;;;5.53;;
14903;SDS011;7543;53.148;8.234;2022-08-19T06:04:21;14.13;;;4.77;;
14903;SDS011;7543;53.148;8.234;2022-08-19T06:06:50;14.30;;;5.27;;
14903;SDS011;7543;53.148;8.234;2022-08-19T06:09:20;13.30;;;5.23;;
14903;SDS011;7543;53.148;8.234;2022-08-19T06:11:51;19.40;;;5.33;;
14903;SDS011;7543;53.148;8.234;2022-08-19T06:14:24;22.53;;;7.33;;
14903;SDS011;7543;53.148;8.234;2022-08-19T06:16:54;26.53;;;7.30;;
14903;SDS011;7543;53.148;8.234;2022-08-19T06:19:22;23.23;;;6.77;;
14903;SDS011;7543;53.148;8.234;2022-08-19T06:21:52;18.83;;;6.50;;
14903;SDS011;7543;53.148;8.234;2022-08-19T06:24:21;13.00;;;4.43;;
14903;SDS011;7543;53.148;8.234;2022-08-19T06:26:53;13.60;;;4.43;;
14903;SDS011;7543;53.148;8.234;2022-08-19T06:29:23;8.30;;;3.10;;
14903;SDS011;7543;53.148;8.234;2022-08-19T06:31:53;9.67;;;3.20;;
14903;SDS011;7543;53.148;8.234;2022-08-19T06:34:23;6.40;;;2.17;;
14903;SDS011;7543;53.148;8.234;2022-08-19T06:36:52;2.30;;;1.43;;
14903;SDS011;7543;53.148;8.234;2022-08-19T06:39:21;3.30;;;2.13;;
14903;SDS011;7543;53.148;8.234;2022-08-19T06:41:53;3.47;;;1.80;;
14903;SDS011;7543;53.148;8.234;2022-08-19T06:44:24;4.50;;;1.80;;
14903;SDS011;7543;53.148;8.234;2022-08-19T06:46:53;3.90;;;1.70;;
14903;SDS011;7543;53.148;8.234;2022-08-19T06:49:22;3.57;;;1.47;;
14903;SDS011;7543;53.148;8.234;2022-08-19T06:51:51;3.27;;;1.70;;
14903;SDS011;7543;53.148;8.234;2022-08-19T06:54:19;2.37;;;1.23;;
14903;SDS011;7543;53.148;8.234;2022-08-19T06:56:48;2.53;;;1.60;;
14903;SDS011;7543;53.148;8.234;2022-08-19T06:59:18;1.70;;;1.37;;
14903;SDS011;7543;53.148;8.234;2022-08-19T07:01:48;2.13;;;1.33;;
14903;SDS011;7543;53.148;8.234;2022-08-19T07:04:18;2.43;;;1.10;;
14903;SDS011;7543;53.148;8.234;2022-08-19T07:06:49;1.60;;;1.20;;
14903;SDS011;7543;53.148;8.234;2022-08-19T07:09:18;1.30;;;1.00;;
14903;SDS011;7543;53.148;8.234;2022-08-19T07:11:46;1.83;;;1.30;;
14903;SDS011;7543;53.148;8.234;2022-08-19T07:14:17;1.47;;;1.03;;
14903;SDS011;7543;53.148;8.234;2022-08-19T07:16:48;1.30;;;0.90;;
14903;SDS011;7543;53.148;8.234;2022-08-19T07:19:18;1.40;;;0.90;;
14903;SDS011;7543;53.148;8.234;2022-08-19T07:21:47;1.53;;;1.30;;
14903;SDS011;7543;53.148;8.234;2022-08-19T07:24:16;2.37;;;1.40;;
14903;SDS011;7543;53.148;8.234;2022-08-19T07:26:45;1.77;;;1.30;;
14903;SDS011;7543;53.148;8.234;2022-08-19T07:29:13;1.20;;;1.00;;
14903;SDS011;7543;53.148;8.234;2022-08-19T07:31:44;2.13;;;1.40;;
14903;SDS011;7543;53.148;8.234;2022-08-19T07:34:12;2.40;;;1.60;;
14903;SDS011;7543;53.148;8.234;2022-08-19T07:36:42;1.57;;;1.10;;
14903;SDS011;7543;53.148;8.234;2022-08-19T07:39:12;2.40;;;0.90;;
14903;SDS011;7543;53.148;8.234;2022-08-19T07:41:42;2.23;;;1.30;;
14903;SDS011;7543;53.148;8.234;2022-08-19T07:44:10;1.50;;;1.20;;
14903;SDS011;7543;53.148;8.234;2022-08-19T07:46:40;3.63;;;1.23;;
14903;SDS011;7543;53.148;8.234;2022-08-19T07:49:13;1.30;;;1.10;;
14903;SDS011;7543;53.148;8.234;2022-08-19T07:51:46;3.63;;;1.13;;
14903;SDS011;7543;53.148;8.234;2022-08-19T07:54:15;1.00;;;0.90;;
14903;SDS011;7543;53.148;8.234;2022-08-19T07:56:43;4.03;;;1.13;;
14903;SDS011;7543;53.148;8.234;2022-08-19T07:59:12;3.40;;;1.30;;
14903;SDS011;7543;53.148;8.234;2022-08-19T08:01:40;1.30;;;1.00;;
14903;SDS011;7543;53.148;8.234;2022-08-19T08:04:10;1.57;;;1.30;;
14903;SDS011;7543;53.148;8.234;2022-08-19T08:07:06;1.03;;;0.93;;
14903;SDS011;7543;53.148;8.234;2022-08-19T08:09:52;0.90;;;0.73;;
14903;SDS011;7543;53.148;8.234;2022-08-19T08:12:21;1.37;;;0.93;;
14903;SDS011;7543;53.148;8.234;2022-08-19T08:14:53;2.50;;;1.20;;
14903;SDS011;7543;53.148;8.234;2022-08-19T08:17:25;1.60;;;1.10;;
14903;SDS011;7543;53.148;8.234;2022-08-19T08:20:11;1.17;;;1.07;;
14903;SDS011;7543;53.148;8.234;2022-08-19T08:22:42;1.07;;;1.00;;
14903;SDS011;7543;53.148;8.234;2022-08-19T08:25:28;1.50;;;1.17;;
14903;SDS011;7543;53.148;8.234;2022-08-19T08:27:57;3.27;;;1.13;;
14903;SDS011;7543;53.148;8.234;2022-08-19T08:30:27;2.73;;;1.10;;
14903;SDS011;7543;53.148;8.234;2022-08-19T08:32:57;1.10;;;1.00;;
14903;SDS011;7543;53.148;8.234;2022-08-19T08:35:26;2.20;;;1.30;;
14903;SDS011;7543;53.148;8.234;2022-08-19T08:37:54;0.90;;;0.80;;
14903;SDS011;7543;53.148;8.234;2022-08-19T08:40:27;1.83;;;1.20;;
14903;SDS011;7543;53.148;8.234;2022-08-19T08:42:58;1.20;;;1.00;;
14903;SDS011;7543;53.148;8.234;2022-08-19T08:45:31;1.53;;;1.10;;
14903;SDS011;7543;53.148;8.234;2022-08-19T08:48:02;2.57;;;1.40;;
14903;SDS011;7543;53.148;8.234;2022-08-19T08:50:39;1.40;;;1.10;;
14903;SDS011;7543;53.148;8.234;2022-08-19T08:53:10;5.53;;;1.10;;
14903;SDS011;7543;53.148;8.234;2022-08-19T08:55:44;2.90;;;1.10;;
14903;SDS011;7543;53.148;8.234;2022-08-19T08:58:14;1.60;;;1.10;;
14903;SDS011;7543;53.148;8.234;2022-08-19T09:00:47;1.20;;;1.07;;
14903;SDS011;7543;53.148;8.234;2022-08-19T09:03:17;1.50;;;1.10;;
14903;SDS011;7543;53.148;8.234;2022-08-19T09:05:50;3.73;;;1.10;;
14903;SDS011;7543;53.148;8.234;2022-08-19T09:08:28;1.73;;;1.00;;
14903;SDS011;7543;53.148;8.234;2022-08-19T09:11:04;4.87;;;1.33;;
14903;SDS011;7543;53.148;8.234;2022-08-19T09:13:36;1.47;;;1.20;;
14903;SDS011;7543;53.148;8.234;2022-08-19T09:16:09;1.13;;;0.90;;
14903;SDS011;7543;53.148;8.234;2022-08-19T09:18:41;1.57;;;1.20;;
14903;SDS011;7543;53.148;8.234;2022-08-19T09:21:11;1.70;;;1.30;;
14903;SDS011;7543;53.148;8.234;2022-08-19T09:23:40;2.83;;;1.50;;
14903;SDS011;7543;53.148;8.234;2022-08-19T09:26:11;1.67;;;1.38;;
14903;SDS011;7543;53.148;8.234;2022-08-19T09:28:41;1.48;;;1.20;;
14903;SDS011;7543;53.148;8.234;2022-08-19T09:31:10;2.83;;;1.10;;
14903;SDS011;7543;53.148;8.234;2022-08-19T09:33:39;2.42;;;1.20;;
14903;SDS011;7543;53.148;8.234;2022-08-19T09:36:12;1.92;;;1.00;;
14903;SDS011;7543;53.148;8.234;2022-08-19T09:38:42;2.00;;;1.23;;
14903;SDS011;7543;53.148;8.234;2022-08-19T09:41:12;1.35;;;1.13;;
14903;SDS011;7543;53.148;8.234;2022-08-19T09:43:41;2.07;;;1.10;;
14903;SDS011;7543;53.148;8.234;2022-08-19T09:46:12;5.07;;;1.67;;
14903;SDS011;7543;53.148;8.234;2022-08-19T09:48:40;3.85;;;1.20;;
14903;SDS011;7543;53.148;8.234;2022-08-19T09:51:09;2.28;;;1.30;;
14903;SDS011;7543;53.148;8.234;2022-08-19T09:53:42;1.75;;;1.30;;
14903;SDS011;7543;53.148;8.234;2022-08-19T09:56:11;1.83;;;0.98;;
14903;SDS011;7543;53.148;8.234;2022-08-19T09:58:40;1.30;;;0.90;;
14903;SDS011;7543;53.148;8.234;2022-08-19T10:01:09;1.48;;;1.20;;
14903;SDS011;7543;53.148;8.234;2022-08-19T10:03:37;1.50;;;1.20;;
14903;SDS011;7543;53.148;8.234;2022-08-19T10:06:05;2.00;;;1.20;;
14903;SDS011;7543;53.148;8.234;2022-08-19T10:08:35;1.60;;;1.20;;
14903;SDS011;7543;53.148;8.234;2022-08-19T10:11:06;1.27;;;1.07;;
14903;SDS011;7543;53.148;8.234;2022-08-19T10:13:35;2.40;;;1.10;;
14903;SDS011;7543;53.148;8.234;2022-08-19T10:16:05;1.55;;;1.02;;
14903;SDS011;7543;53.148;8.234;2022-08-19T10:18:34;1.55;;;1.00;;
14903;SDS011;7543;53.148;8.234;2022-08-19T10:21:04;1.05;;;0.93;;
14903;SDS011;7543;53.148;8.234;2022-08-19T10:23:37;1.83;;;0.93;;
14903;SDS011;7543;53.148;8.234;2022-08-19T10:26:06;2.03;;;0.90;;
14903;SDS011;7543;53.148;8.234;2022-08-19T10:28:35;2.25;;;0.90;;
14903;SDS011;7543;53.148;8.234;2022-08-19T10:31:05;1.70;;;0.75;;
14903;SDS011;7543;53.148;8.234;2022-08-19T10:33:35;3.13;;;0.90;;
14903;SDS011;7543;53.148;8.234;2022-08-19T10:36:04;1.10;;;0.95;;
14903;SDS011;7543;53.148;8.234;2022-08-19T10:38:34;4.13;;;0.88;;
14903;SDS011;7543;53.148;8.234;2022-08-19T10:41:07;1.90;;;1.10;;
14903;SDS011;7543;53.148;8.234;2022-08-19T10:43:37;2.22;;;1.17;;
14903;SDS011;7543;53.148;8.234;2022-08-19T10:46:06;0.90;;;0.90;;
14903;SDS011;7543;53.148;8.234;2022-08-19T10:48:35;1.20;;;0.82;;
14903;SDS011;7543;53.148;8.234;2022-08-19T10:51:04;1.17;;;1.08;;
14903;SDS011;7543;53.148;8.234;2022-08-19T10:54:05;1.50;;;1.00;;
14903;SDS011;7543;53.148;8.234;2022-08-19T10:56:34;1.00;;;0.88;;
14903;SDS011;7543;53.148;8.234;2022-08-19T10:59:22;2.90;;;0.90;;
14903;SDS011;7543;53.148;8.234;2022-08-19T11:01:53;3.08;;;0.90;;
14903;SDS011;7543;53.148;8.234;2022-08-19T11:04:21;1.05;;;0.93;;
14903;SDS011;7543;53.148;8.234;2022-08-19T11:06:49;2.47;;;1.02;;
14903;SDS011;7543;53.148;8.234;2022-08-19T11:09:19;1.35;;;0.88;;
14903;SDS011;7543;53.148;8.234;2022-08-19T11:11:52;2.38;;;0.98;;
14903;SDS011;7543;53.148;8.234;2022-08-19T11:14:22;2.35;;;0.90;;
14903;SDS011;7543;53.148;8.234;2022-08-19T11:16:51;1.08;;;0.80;;
14903;SDS011;7543;53.148;8.234;2022-08-19T11:19:22;1.50;;;0.90;;
14903;SDS011;7543;53.148;8.234;2022-08-19T11:21:51;1.05;;;0.93;;
14903;SDS011;7543;53.148;8.234;2022-08-19T11:24:22;2.10;;;1.00;;
14903;SDS011;7543;53.148;8.234;2022-08-19T11:26:54;1.00;;;0.90;;
14903;SDS011;7543;53.148;8.234;2022-08-19T11:29:25;1.65;;;0.82;;
14903;SDS011;7543;53.148;8.234;2022-08-19T11:31:54;0.82;;;0.65;;
14903;SDS011;7543;53.148;8.234;2022-08-19T11:34:23;1.48;;;1.00;;
14903;SDS011;7543;53.148;8.234;2022-08-19T11:36:54;1.25;;;0.88;;
14903;SDS011;7543;53.148;8.234;2022-08-19T11:39:25;1.13;;;0.93;;
14903;SDS011;7543;53.148;8.234;2022-08-19T11:41:55;0.98;;;0.88;;
14903;SDS011;7543;53.148;8.234;2022-08-19T11:44:25;1.15;;;0.90;;
14903;SDS011;7543;53.148;8.234;2022-08-19T11:46:54;1.20;;;1.00;;
14903;SDS011;7543;53.148;8.234;2022-08-19T11:49:22;1.48;;;0.90;;
14903;SDS011;7543;53.148;8.234;2022-08-19T11:51:50;1.20;;;0.77;;
14903;SDS011;7543;53.148;8.234;2022-08-19T11:54:20;1.27;;;0.88;;
14903;SDS011;7543;53.148;8.234;2022-08-19T11:56:48;0.93;;;0.82;;
14903;SDS011;7543;53.148;8.234;2022-08-19T11:59:17;2.28;;;0.68;;
14903;SDS011;7543;53.148;8.234;2022-08-19T12:01:45;2.78;;;0.93;;
14903;SDS011;7543;53.148;8.234;2022-08-19T12:04:13;2.25;;;0.93;;
14903;SDS011;7543;53.148;8.234;2022-08-19T12:06:42;1.00;;;0.90;;
14903;SDS011;7543;53.148;8.234;2022-08-19T12:09:10;1.67;;;1.10;;
14903;SDS011;7543;53.148;8.234;2022-08-19T12:11:38;1.00;;;0.80;;
14903;SDS011;7543;53.148;8.234;2022-08-19T12:14:08;0.73;;;0.73;;
14903;SDS011;7543;53.148;8.234;2022-08-19T12:16:39;1.33;;;0.98;;
14903;SDS011;7543;53.148;8.234;2022-08-19T12:19:07;2.20;;;1.05;;
14903;SDS011;7543;53.148;8.234;2022-08-19T12:21:36;0.77;;;0.77;;
14903;SDS011;7543;53.148;8.234;2022-08-19T12:24:04;1.52;;;1.00;;
14903;SDS011;7543;53.148;8.234;2022-08-19T12:26:34;1.45;;;1.02;;
14903;SDS011;7543;53.148;8.234;2022-08-19T12:29:02;1.25;;;1.00;;
14903;SDS011;7543;53.148;8.234;2022-08-19T12:31:30;2.20;;;1.00;;
14903;SDS011;7543;53.148;8.234;2022-08-19T12:34:00;5.15;;;0.93;;
14903;SDS011;7543;53.148;8.234;2022-08-19T12:36:29;1.40;;;1.05;;
14903;SDS011;7543;53.148;8.234;2022-08-19T12:38:57;1.45;;;0.90;;
14903;SDS011;7543;53.148;8.234;2022-08-19T12:41:26;5.60;;;1.35;;
14903;SDS011;7543;53.148;8.234;2022-08-19T12:43:54;1.67;;;1.10;;
14903;SDS011;7543;53.148;8.234;2022-08-19T12:46:22;1.05;;;0.95;;
14903;SDS011;7543;53.148;8.234;2022-08-19T12:48:51;1.05;;;0.80;;
14903;SDS011;7543;53.148;8.234;2022-08-19T12:51:21;0.80;;;0.80;;
14903;SDS011;7543;53.148;8.234;2022-08-19T12:53:50;1.52;;;0.93;;
14903;SDS011;7543;53.148;8.234;2022-08-19T12:56:18;1.58;;;0.90;;
14903;SDS011;7543;53.148;8.234;2022-08-19T12:58:46;1.52;;;1.17;;
14903;SDS011;7543;53.148;8.234;2022-08-19T13:01:16;1.08;;;0.80;;
14903;SDS011;7543;53.148;8.234;2022-08-19T13:03:45;1.63;;;0.93;;
14903;SDS011;7543;53.148;8.234;2022-08-19T13:06:14;1.02;;;0.93;;
14903;SDS011;7543;53.148;8.234;2022-08-19T13:08:43;2.08;;;1.08;;
14903;SDS011;7543;53.148;8.234;2022-08-19T13:11:12;1.00;;;0.90;;
14903;SDS011;7543;53.148;8.234;2022-08-19T13:13:42;1.65;;;1.00;;
14903;SDS011;7543;53.148;8.234;2022-08-19T13:16:10;2.72;;;1.10;;
14903;SDS011;7543;53.148;8.234;2022-08-19T13:18:40;1.20;;;0.95;;
14903;SDS011;7543;53.148;8.234;2022-08-19T13:21:09;2.17;;;1.35;;
14903;SDS011;7543;53.148;8.234;2022-08-19T13:23:40;1.20;;;1.10;;
14903;SDS011;7543;53.148;8.234;2022-08-19T13:26:10;1.73;;;1.15;;
14903;SDS011;7543;53.148;8.234;2022-08-19T13:28:39;1.55;;;1.17;;
14903;SDS011;7543;53.148;8.234;2022-08-19T13:31:27;1.38;;;1.15;;
14903;SDS011;7543;53.148;8.234;2022-08-19T13:34:30;1.30;;;1.10;;
14903;SDS011;7543;53.148;8.234;2022-08-19T13:37:01;0.90;;;0.90;;
14903;SDS011;7543;53.148;8.234;2022-08-19T13:39:30;0.90;;;0.90;;
14903;SDS011;7543;53.148;8.234;2022-08-19T13:42:00;1.10;;;1.00;;
14903;SDS011;7543;53.148;8.234;2022-08-19T13:44:29;2.05;;;0.90;;
14903;SDS011;7543;53.148;8.234;2022-08-19T13:46:59;1.30;;;1.00;;
14903;SDS011;7543;53.148;8.234;2022-08-19T13:49:32;1.00;;;0.82;;
14903;SDS011;7543;53.148;8.234;2022-08-19T13:52:02;1.00;;;0.90;;
14903;SDS011;7543;53.148;8.234;2022-08-19T13:54:30;1.10;;;1.00;;
14903;SDS011;7543;53.148;8.234;2022-08-19T13:57:00;1.02;;;0.93;;
14903;SDS011;7543;53.148;8.234;2022-08-19T13:59:28;1.02;;;0.93;;
14903;SDS011;7543;53.148;8.234;2022-08-19T14:01:57;0.95;;;0.93;;
14903;SDS011;7543;53.148;8.234;2022-08-19T14:04:26;0.73;;;0.73;;
14903;SDS011;7543;53.148;8.234;2022-08-19T14:06:55;0.93;;;0.88;;
14903;SDS011;7543;53.148;8.234;2022-08-19T14:09:23;1.73;;;1.25;;
14903;SDS011;7543;53.148;8.234;2022-08-19T14:11:51;0.90;;;0.90;;
14903;SDS011;7543;53.148;8.234;2022-08-19T14:14:20;1.75;;;1.20;;
14903;SDS011;7543;53.148;8.234;2022-08-19T14:16:49;1.20;;;1.00;;
14903;SDS011;7543;53.148;8.234;2022-08-19T14:19:18;1.00;;;0.88;;
14903;SDS011;7543;53.148;8.234;2022-08-19T14:21:46;1.48;;;1.10;;
14903;SDS011;7543;53.148;8.234;2022-08-19T14:24:14;1.42;;;1.15;;
14903;SDS011;7543;53.148;8.234;2022-08-19T14:26:43;1.17;;;1.08;;
14903;SDS011;7543;53.148;8.234;2022-08-19T14:29:11;1.33;;;1.00;;
14903;SDS011;7543;53.148;8.234;2022-08-19T14:31:40;1.92;;;1.30;;
14903;SDS011;7543;53.148;8.234;2022-08-19T14:34:10;1.40;;;1.10;;
14903;SDS011;7543;53.148;8.234;2022-08-19T14:36:39;1.85;;;1.38;;
14903;SDS011;7543;53.148;8.234;2022-08-19T14:39:08;1.33;;;1.00;;
14903;SDS011;7543;53.148;8.234;2022-08-19T14:41:36;1.55;;;1.23;;
14903;SDS011;7543;53.148;8.234;2022-08-19T14:44:08;3.83;;;1.30;;
14903;SDS011;7543;53.148;8.234;2022-08-19T14:46:39;1.30;;;0.93;;
14903;SDS011;7543;53.148;8.234;2022-08-19T14:49:08;3.50;;;1.30;;
14903;SDS011;7543;53.148;8.234;2022-08-19T14:51:37;1.25;;;1.08;;
14903;SDS011;7543;53.148;8.234;2022-08-19T14:54:05;1.30;;;1.15;;
14903;SDS011;7543;53.148;8.234;2022-08-19T14:56:33;1.27;;;1.10;;
14903;SDS011;7543;53.148;8.234;2022-08-19T14:59:02;1.92;;;1.02;;
14903;SDS011;7543;53.148;8.234;2022-08-19T15:01:30;1.27;;;1.17;;
14903;SDS011;7543;53.148;8.234;2022-08-19T15:03:59;1.88;;;1.17;;
14903;SDS011;7543;53.148;8.234;2022-08-19T15:06:27;1.73;;;1.20;;
14903;SDS011;7543;53.148;8.234;2022-08-19T15:08:57;1.48;;;1.15;;
14903;SDS011;7543;53.148;8.234;2022-08-19T15:11:25;1.20;;;0.93;;
14903;SDS011;7543;53.148;8.234;2022-08-19T15:13:54;2.85;;;1.25;;
14903;SDS011;7543;53.148;8.234;2022-08-19T15:16:23;1.40;;;1.00;;
14903;SDS011;7543;53.148;8.234;2022-08-19T15:18:53;1.50;;;1.23;;
14903;SDS011;7543;53.148;8.234;2022-08-19T15:21:24;2.03;;;1.20;;